Terminal Aerodrome Forecast
Issued by NWS

Home | Current Version | Previous Version | Text Only | Print | Product List | Glossary On
Versions: 1 2 3 4 5 6 7 8 9 10 11 12 13 14 15 16
000
FTUS42 KMLB 101100
TAFFPR
TAF
KFPR 101124Z 1012/1112 00000KT P6SM VCSH FEW002
     FM101500 10011KT P6SM VCTS SCT030CB SCT100 BKN250
      TEMPO 1016/1018 3SM TSRA BKN035CB
     FM110000 14006KT P6SM BKN120 OVC250=

USA.gov is the U.S. government's official web portal to all federal, state and local government web resources and services.